Time;durP1;ratioP1;P1;durP2;ratioP2;P2;SDS_P1;SDS_P2;PMS_P1;PMS_P2;Temp;Humidity;BMP_temperature;BMP_pressure;BME280_temperature;BME280_humidity;BME280_pressure;Samples;Min_cycle;Max_cycle;Signal;HPM_P1;HPM_P2
2023/05/17 00:01:43;;;;;;;2.37;2.17;;;20.10;57.20;20.80;101514.00;;;;5033769;28;20245;-59
2023/05/17 00:04:09;;;;;;;3.03;2.10;;;20.10;57.20;20.80;101517.00;;;;5040276;28;20265;-59
2023/05/17 00:06:35;;;;;;;2.50;1.93;;;20.10;57.20;20.80;101514.00;;;;5033670;28;20249;-58
2023/05/17 00:09:01;;;;;;;2.73;2.00;;;20.10;57.10;20.80;101514.00;;;;5030134;28;20270;-58
2023/05/17 00:11:27;;;;;;;2.73;2.20;;;20.00;57.20;20.80;101514.00;;;;5031348;28;20189;-59
2023/05/17 00:13:53;;;;;;;2.50;2.30;;;20.10;57.30;20.70;101488.00;;;;5029806;28;20181;-58
2023/05/17 00:16:18;;;;;;;2.50;1.97;;;20.00;57.00;20.70;101513.00;;;;5029650;28;20565;-58
2023/05/17 00:18:44;;;;;;;2.20;2.00;;;20.00;56.90;20.70;101517.00;;;;5029607;28;20181;-59
2023/05/17 00:21:10;;;;;;;2.40;1.93;;;20.00;57.10;20.70;101452.00;;;;5036830;28;20198;-58
2023/05/17 00:23:36;;;;;;;1.93;1.83;;;20.00;57.00;20.70;101517.00;;;;5044520;28;20202;-58
2023/05/17 00:26:01;;;;;;;2.47;2.10;;;20.00;57.10;20.60;101512.00;;;;5031707;28;20189;-59
2023/05/17 00:28:27;;;;;;;2.10;1.90;;;19.90;56.70;20.60;101515.00;;;;5031191;28;20702;-58
2023/05/17 00:30:53;;;;;;;3.43;2.10;;;19.90;56.80;20.60;101517.00;;;;5031516;28;20593;-58
2023/05/17 00:33:19;;;;;;;2.90;2.20;;;19.90;57.00;20.60;101509.00;;;;5032624;28;20216;-58
2023/05/17 00:35:45;;;;;;;2.27;2.07;;;19.90;57.10;20.60;101518.00;;;;5033794;28;20186;-59
2023/05/17 00:38:11;;;;;;;2.83;2.10;;;19.90;57.00;20.60;101528.00;;;;5048320;28;20162;-58
2023/05/17 00:40:36;;;;;;;2.53;2.20;;;19.90;57.10;20.60;101519.00;;;;5043216;28;20209;-58
2023/05/17 00:43:02;;;;;;;2.63;2.00;;;19.90;57.50;20.50;101523.00;;;;5030602;28;20215;-59
2023/05/17 00:45:28;;;;;;;2.03;1.90;;;19.80;57.00;20.50;101517.00;;;;5031004;28;20689;-58
2023/05/17 00:47:54;;;;;;;2.73;2.00;;;19.80;57.00;20.50;101513.00;;;;5028869;28;20185;-58
2023/05/17 00:50:20;;;;;;;3.20;2.30;;;19.80;56.90;20.50;101511.00;;;;5030427;28;20214;-59
2023/05/17 00:52:46;;;;;;;3.03;2.20;;;19.80;57.20;20.40;101507.00;;;;5029256;28;20181;-58
2023/05/17 00:55:11;;;;;;;2.40;2.10;;;19.80;57.00;20.40;101523.00;;;;5010724;28;20599;-59
2023/05/17 00:57:37;;;;;;;1.97;1.87;;;19.70;56.90;20.40;101520.00;;;;5011722;28;20259;-59
2023/05/17 01:00:04;;;;;;;2.00;1.80;;;19.70;56.90;20.40;101516.00;;;;5032383;28;20189;-59
2023/05/17 01:02:29;;;;;;;2.30;2.00;;;19.80;57.00;20.40;101506.00;;;;5031742;28;20981;-58
2023/05/17 01:04:55;;;;;;;2.30;2.00;;;19.70;56.90;20.30;101520.00;;;;5029332;28;20255;-59
2023/05/17 01:07:21;;;;;;;2.67;1.83;;;19.70;56.80;20.30;101517.00;;;;5029485;28;20173;-57
2023/05/17 01:09:47;;;;;;;2.00;1.80;;;19.70;56.80;20.30;101523.00;;;;5031412;28;20229;-58
2023/05/17 01:12:25;;;;;;;1.87;1.77;;;19.70;56.80;20.30;101528.00;;;;5029954;28;20262;-57
2023/05/17 01:15:14;;;;;;;2.67;2.00;;;19.70;56.80;20.30;101526.00;;;;5030062;28;20225;-58
2023/05/17 01:18:16;;;;;;;2.33;2.00;;;19.60;56.60;20.20;101528.00;;;;5028455;28;20182;-57
2023/05/17 01:20:43;;;;;;;2.10;1.90;;;19.60;56.70;20.20;101522.00;;;;5028574;28;20206;-57
2023/05/17 01:23:39;;;;;;;1.97;1.70;;;19.60;56.70;20.20;101532.00;;;;5028592;28;20222;-57
2023/05/17 01:26:17;;;;;;;2.40;1.90;;;19.60;56.70;19.90;101537.00;;;;5029622;28;20570;-58
2023/05/17 01:28:46;;;;;;;2.50;2.10;;;19.60;56.60;20.10;101544.00;;;;5029647;28;20193;-58
2023/05/17 01:31:11;;;;;;;2.80;1.90;;;19.60;56.70;20.10;101534.00;;;;5028406;28;20719;-58
2023/05/17 01:33:37;;;;;;;2.17;1.90;;;19.60;56.60;20.10;101544.00;;;;5028196;28;20258;-58
2023/05/17 01:36:04;;;;;;;2.57;2.20;;;19.50;56.70;20.10;101540.00;;;;5027472;28;20294;-58
2023/05/17 01:38:30;;;;;;;2.87;2.03;;;19.50;56.40;20.10;101537.00;;;;5029424;28;20673;-58
2023/05/17 01:41:01;;;;;;;1.80;1.70;;;19.50;56.70;20.10;101546.00;;;;5029667;28;20202;-59
2023/05/17 01:43:35;;;;;;;2.20;2.00;;;19.60;56.50;20.10;101547.00;;;;5028100;28;20288;-58
2023/05/17 01:46:37;;;;;;;2.33;1.80;;;19.50;56.60;20.10;101543.00;;;;5028178;28;20267;-60
2023/05/17 01:49:17;;;;;;;2.77;2.00;;;19.50;56.60;20.00;101549.00;;;;5027690;28;20242;-58
2023/05/17 01:51:48;;;;;;;2.20;2.00;;;19.40;56.40;20.00;101550.00;;;;5027864;28;20327;-58
2023/05/17 01:54:14;;;;;;;2.47;2.10;;;19.40;56.40;20.00;101563.00;;;;5021118;28;20214;-59
2023/05/17 01:56:46;;;;;;;2.57;1.83;;;19.40;56.40;20.00;101560.00;;;;5027885;28;20228;-58
2023/05/17 01:59:14;;;;;;;2.63;2.00;;;19.40;56.50;19.90;101559.00;;;;5027964;28;20212;-57
2023/05/17 02:01:40;;;;;;;2.00;1.80;;;19.30;56.50;19.90;101559.00;;;;5027841;28;20199;-58
2023/05/17 02:04:06;;;;;;;2.30;2.10;;;19.30;56.40;19.90;101554.00;;;;5028035;28;20701;-58
2023/05/17 02:06:31;;;;;;;2.37;1.90;;;19.30;56.50;19.90;101551.00;;;;5029041;28;20174;-57
2023/05/17 02:08:59;;;;;;;1.97;1.80;;;19.40;56.50;19.90;101548.00;;;;5029299;28;20918;-58
2023/05/17 02:11:25;;;;;;;2.77;2.10;;;19.30;56.40;19.80;101559.00;;;;5031536;28;20198;-57
2023/05/17 02:13:51;;;;;;;2.07;1.87;;;19.30;56.40;19.80;101563.00;;;;5030122;28;20178;-58
2023/05/17 02:16:16;;;;;;;1.93;1.83;;;19.30;56.40;19.80;101563.00;;;;5030820;28;20178;-57
2023/05/17 02:18:42;;;;;;;1.83;1.73;;;19.30;56.40;19.80;101564.00;;;;5028716;28;20654;-57
2023/05/17 02:21:08;;;;;;;2.00;1.80;;;19.30;56.40;19.80;101568.00;;;;5029126;28;20195;-57
2023/05/17 02:23:34;;;;;;;2.07;1.80;;;19.20;56.30;19.80;101567.00;;;;5050111;28;20188;-60
2023/05/17 02:26:00;;;;;;;2.13;1.90;;;19.20;56.30;19.80;101563.00;;;;5038506;28;20273;-58
2023/05/17 02:28:26;;;;;;;2.30;2.00;;;19.20;56.90;19.80;101572.00;;;;5034688;28;20248;-58
2023/05/17 02:30:52;;;;;;;2.67;2.10;;;19.20;56.30;19.80;101577.00;;;;5030455;28;20188;-57
2023/05/17 02:33:17;;;;;;;2.20;1.90;;;19.20;56.40;19.70;101576.00;;;;5028995;28;20175;-58
2023/05/17 02:35:43;;;;;;;2.27;2.03;;;19.20;56.30;19.50;101576.00;;;;5030133;28;20179;-59
2023/05/17 02:38:09;;;;;;;1.90;1.70;;;19.20;56.20;19.70;101573.00;;;;5042140;28;20186;-58
2023/05/17 02:40:35;;;;;;;2.03;1.80;;;19.10;56.20;19.70;101569.00;;;;5034626;28;20260;-58
2023/05/17 02:43:00;;;;;;;2.07;1.83;;;19.10;56.30;19.70;101570.00;;;;5029575;28;20536;-57
2023/05/17 02:45:26;;;;;;;2.20;1.80;;;19.10;56.40;19.70;101564.00;;;;5027898;28;20170;-58
2023/05/17 02:47:52;;;;;;;1.93;1.83;;;19.10;56.40;19.70;101563.00;;;;5026596;28;20247;-58
2023/05/17 02:50:17;;;;;;;3.10;2.00;;;19.10;56.40;19.60;101562.00;;;;5028815;28;20650;-58
2023/05/17 02:52:43;;;;;;;2.63;1.90;;;19.10;56.40;19.60;101571.00;;;;5027442;28;20708;-58
2023/05/17 02:55:09;;;;;;;2.73;1.90;;;19.00;56.40;19.60;101558.00;;;;5028583;28;20175;-57
2023/05/17 02:57:35;;;;;;;2.70;2.13;;;19.10;56.40;19.60;101581.00;;;;5027008;28;20221;-58
2023/05/17 03:00:01;;;;;;;3.10;2.23;;;19.00;56.30;19.60;101577.00;;;;5028400;28;20262;-58
2023/05/17 03:02:26;;;;;;;2.77;2.23;;;19.00;56.30;19.50;101570.00;;;;5027973;28;20314;-57
2023/05/17 03:04:52;;;;;;;2.33;1.90;;;19.00;56.20;19.50;101576.00;;;;5027022;28;20253;-58
2023/05/17 03:07:18;;;;;;;3.07;1.90;;;19.00;56.20;19.50;101565.00;;;;5027936;28;20171;-57
2023/05/17 03:09:43;;;;;;;3.20;2.00;;;19.00;56.20;19.40;101569.00;;;;5028384;28;20239;-58
2023/05/17 03:12:10;;;;;;;2.63;2.17;;;18.90;56.20;19.40;101569.00;;;;5028227;28;20272;-58
2023/05/17 03:14:35;;;;;;;3.03;2.20;;;18.90;56.20;19.40;101574.00;;;;5021343;28;20182;-58
2023/05/17 03:17:01;;;;;;;2.00;1.80;;;18.90;56.20;19.40;101572.00;;;;5027134;28;20253;-59
2023/05/17 03:19:27;;;;;;;2.13;1.80;;;18.90;56.20;19.40;101584.00;;;;5022462;28;20190;-58
2023/05/17 03:21:53;;;;;;;2.60;1.80;;;18.90;56.20;19.40;101578.00;;;;5025677;28;20657;-57
2023/05/17 03:24:18;;;;;;;2.97;2.07;;;18.90;56.10;19.30;101577.00;;;;5028125;28;20194;-57
2023/05/17 03:26:44;;;;;;;2.30;2.10;;;18.80;55.90;19.30;101595.00;;;;5026906;28;20203;-57
2023/05/17 03:29:10;;;;;;;9.00;2.50;;;18.90;56.80;19.30;101577.00;;;;5027822;28;20190;-59
2023/05/17 03:31:36;;;;;;;2.73;1.90;;;18.80;56.30;19.30;101600.00;;;;5026893;28;20194;-59
2023/05/17 03:34:01;;;;;;;4.80;2.30;;;18.80;56.30;19.30;101592.00;;;;5026870;28;20650;-58
2023/05/17 03:36:27;;;;;;;4.00;2.30;;;18.80;56.20;19.30;101581.00;;;;5028461;28;20542;-58
2023/05/17 03:38:53;;;;;;;4.43;2.23;;;18.80;56.20;19.30;101605.00;;;;5026675;28;20179;-58
2023/05/17 03:41:19;;;;;;;4.07;2.20;;;18.80;56.20;19.30;101609.00;;;;5028397;28;20198;-57
2023/05/17 03:43:45;;;;;;;4.57;2.10;;;18.80;56.30;19.30;101614.00;;;;5028256;28;20689;-58
2023/05/17 03:46:10;;;;;;;3.97;2.30;;;18.70;56.40;19.30;101614.00;;;;5027793;28;20186;-59
2023/05/17 03:48:36;;;;;;;4.47;2.03;;;18.70;56.50;19.30;101608.00;;;;5028006;28;20171;-58
2023/05/17 03:51:02;;;;;;;2.30;2.10;;;18.80;57.20;19.30;101613.00;;;;5029456;28;20195;-59
2023/05/17 03:53:28;;;;;;;2.40;2.00;;;18.70;56.60;19.30;101622.00;;;;5028295;28;20182;-59
2023/05/17 03:55:53;;;;;;;3.80;2.03;;;18.70;56.60;19.30;101623.00;;;;5029352;28;20190;-58
2023/05/17 03:58:19;;;;;;;2.93;2.30;;;18.70;56.60;19.30;101627.00;;;;5027828;28;20660;-58
2023/05/17 04:00:45;;;;;;;3.43;2.17;;;18.80;56.70;19.30;101613.00;;;;5032208;28;20202;-58
2023/05/17 04:03:11;;;;;;;2.00;1.80;;;18.80;56.70;19.30;101617.00;;;;5032656;28;20223;-58
2023/05/17 04:05:40;;;;;;;2.37;1.90;;;18.70;56.70;19.20;101619.00;;;;5031314;28;20163;-58
2023/05/17 04:08:05;;;;;;;3.67;2.00;;;18.70;56.70;19.20;101621.00;;;;5032282;28;20207;-59
2023/05/17 04:10:31;;;;;;;2.30;1.70;;;18.70;56.70;19.20;101624.00;;;;5032500;28;20253;-58
2023/05/17 04:12:57;;;;;;;2.27;2.07;;;18.70;56.70;19.20;101627.00;;;;5023203;28;20183;-59
2023/05/17 04:15:23;;;;;;;3.47;2.00;;;18.60;56.70;19.20;101627.00;;;;5032697;28;20645;-58
2023/05/17 04:17:48;;;;;;;2.60;1.90;;;18.60;56.70;19.20;101642.00;;;;5032165;28;20210;-58
2023/05/17 04:20:14;;;;;;;2.13;1.90;;;18.60;56.70;19.20;101631.00;;;;5032600;28;20179;-57
2023/05/17 04:22:40;;;;;;;2.07;1.87;;;18.60;56.70;19.20;101640.00;;;;5045129;28;20199;-57
2023/05/17 04:25:07;;;;;;;2.57;1.77;;;18.60;56.70;19.20;101643.00;;;;5043731;28;20171;-59
2023/05/17 04:27:32;;;;;;;2.53;1.80;;;18.50;56.70;19.20;101640.00;;;;5037488;28;20251;-59
2023/05/17 04:29:58;;;;;;;2.57;2.00;;;18.50;56.70;19.20;101645.00;;;;5015495;28;20182;-58
2023/05/17 04:32:24;;;;;;;2.40;1.90;;;18.60;56.90;19.10;101645.00;;;;5025435;28;20697;-57
2023/05/17 04:34:50;;;;;;;2.00;1.80;;;18.50;56.80;19.10;101640.00;;;;5029146;28;20268;-58
2023/05/17 04:37:16;;;;;;;2.20;2.00;;;18.50;56.90;19.10;101638.00;;;;5028552;28;20175;-57
2023/05/17 04:39:42;;;;;;;2.17;1.97;;;18.50;56.80;19.10;101639.00;;;;5039995;28;20637;-59
2023/05/17 04:42:08;;;;;;;2.93;1.70;;;18.50;56.90;19.10;101642.00;;;;5033205;28;20188;-57
2023/05/17 04:44:34;;;;;;;2.23;1.90;;;18.40;56.90;19.10;101646.00;;;;5030688;28;20237;-58
2023/05/17 04:47:00;;;;;;;5.47;2.20;;;18.40;56.90;19.10;101647.00;;;;5030884;28;20661;-58
2023/05/17 04:49:25;;;;;;;2.60;1.73;;;18.50;57.00;19.10;101644.00;;;;5033411;28;20213;-59
2023/05/17 04:51:51;;;;;;;3.13;1.90;;;18.40;57.00;19.10;101649.00;;;;5034869;28;20210;-59
2023/05/17 04:54:17;;;;;;;4.20;1.97;;;18.40;57.10;19.00;101647.00;;;;5030859;28;20712;-57
2023/05/17 04:56:43;;;;;;;4.23;1.80;;;18.50;57.10;19.00;101654.00;;;;5030857;28;20653;-56
2023/05/17 04:59:08;;;;;;;3.20;2.20;;;18.40;57.20;19.00;101652.00;;;;5012442;28;20262;-58
2023/05/17 05:01:34;;;;;;;2.03;1.80;;;18.40;57.30;19.00;101652.00;;;;5029739;28;20619;-58
2023/05/17 05:04:05;;;;;;;4.50;1.90;;;18.40;57.50;19.00;101660.00;;;;5031012;28;20559;-59
2023/05/17 05:06:32;;;;;;;3.00;1.80;;;18.40;57.60;19.00;101657.00;;;;5028943;28;20187;-58
2023/05/17 05:08:59;;;;;;;1.80;1.70;;;18.40;57.50;19.00;101667.00;;;;5029126;28;20262;-58
2023/05/17 05:11:25;;;;;;;2.27;1.80;;;18.40;57.60;18.90;101655.00;;;;5029539;28;20280;-58
2023/05/17 05:13:51;;;;;;;1.93;1.77;;;18.40;57.60;19.00;101676.00;;;;5029302;28;20206;-57
2023/05/17 05:16:16;;;;;;;4.20;1.90;;;18.30;57.60;19.00;101675.00;;;;5030482;28;20831;-58
2023/05/17 05:18:42;;;;;;;4.70;1.90;;;18.30;57.70;19.00;101674.00;;;;5028116;28;20269;-58
2023/05/17 05:21:08;;;;;;;4.00;2.00;;;18.30;57.80;19.00;101684.00;;;;5012038;28;20195;-58
2023/05/17 05:23:34;;;;;;;5.27;1.90;;;18.30;57.80;19.00;101684.00;;;;5012552;28;20206;-58
2023/05/17 05:26:00;;;;;;;3.00;2.00;;;18.30;57.80;18.90;101691.00;;;;5028473;28;20179;-58
2023/05/17 05:28:25;;;;;;;3.20;2.20;;;18.30;57.90;18.90;101705.00;;;;5027643;28;20190;-58
2023/05/17 05:30:59;;;;;;;2.77;1.80;;;18.30;57.90;18.90;101703.00;;;;5028736;28;20277;-59
2023/05/17 05:33:25;;;;;;;3.17;2.10;;;18.30;57.90;18.90;101703.00;;;;5029083;28;20186;-58
2023/05/17 05:35:51;;;;;;;2.70;2.00;;;18.30;58.00;18.90;101707.00;;;;5028794;28;20174;-58
2023/05/17 05:38:16;;;;;;;2.87;1.87;;;18.30;58.00;18.90;101710.00;;;;5029579;28;20183;-58
2023/05/17 05:40:42;;;;;;;2.10;1.90;;;18.30;58.00;18.90;101714.00;;;;5030575;28;20288;-58
2023/05/17 05:43:08;;;;;;;2.10;1.80;;;18.30;58.00;18.90;101714.00;;;;5028110;28;20202;-58
2023/05/17 05:45:33;;;;;;;3.10;2.00;;;18.20;58.00;18.90;101717.00;;;;5030253;28;20211;-58
2023/05/17 05:47:59;;;;;;;2.30;1.70;;;18.20;57.90;18.80;101719.00;;;;5028490;28;20175;-59
2023/05/17 05:50:25;;;;;;;3.20;1.90;;;18.20;57.90;18.80;101717.00;;;;5029455;28;20171;-58
2023/05/17 05:52:50;;;;;;;2.00;1.90;;;18.20;58.00;18.80;101713.00;;;;5028954;28;20179;-59
2023/05/17 05:55:16;;;;;;;2.00;1.80;;;18.30;58.10;18.80;101714.00;;;;5030326;28;20183;-59
2023/05/17 05:57:42;;;;;;;2.50;1.80;;;18.20;58.00;18.80;101713.00;;;;5028450;28;20186;-57
2023/05/17 06:00:08;;;;;;;2.90;2.07;;;18.20;58.00;18.80;101714.00;;;;5029532;28;20179;-58
2023/05/17 06:02:34;;;;;;;1.97;1.80;;;18.20;58.00;18.80;101713.00;;;;5029140;28;20211;-59
2023/05/17 06:05:02;;;;;;;2.00;1.80;;;18.20;58.10;18.80;101713.00;;;;5029608;28;20179;-58
2023/05/17 06:07:28;;;;;;;2.37;1.93;;;18.20;58.10;18.80;101709.00;;;;5028458;28;20190;-59
2023/05/17 06:09:53;;;;;;;2.07;1.80;;;18.10;58.00;18.80;101720.00;;;;5028298;28;20187;-59
2023/05/17 06:12:19;;;;;;;1.80;1.70;;;18.10;58.00;18.80;101714.00;;;;5029307;28;20203;-57
2023/05/17 06:14:45;;;;;;;3.30;1.90;;;18.20;58.10;18.80;101716.00;;;;5028205;28;20183;-58
2023/05/17 06:17:11;;;;;;;2.07;1.87;;;18.20;58.10;18.80;101715.00;;;;5013183;28;20187;-58
2023/05/17 06:19:36;;;;;;;2.63;1.90;;;18.20;58.20;18.80;101715.00;;;;5030946;28;20171;-58
2023/05/17 06:22:02;;;;;;;1.90;1.70;;;18.20;58.10;18.80;101721.00;;;;5031404;28;20666;-59
2023/05/17 06:24:28;;;;;;;2.93;2.00;;;18.10;58.20;18.70;101723.00;;;;5037771;28;20208;-60
2023/05/17 06:26:53;;;;;;;2.07;1.87;;;18.10;58.10;18.70;101720.00;;;;5031607;28;20179;-58
2023/05/17 06:29:19;;;;;;;2.20;2.00;;;18.10;58.10;18.70;101725.00;;;;5027304;28;20175;-58
2023/05/17 06:31:45;;;;;;;2.30;1.67;;;18.10;58.20;18.70;101722.00;;;;5029679;28;20195;-62
2023/05/17 06:34:11;;;;;;;1.97;1.77;;;18.10;58.30;18.70;101726.00;;;;5027816;28;20179;-58
2023/05/17 06:36:36;;;;;;;2.10;1.90;;;18.00;58.20;18.70;101728.00;;;;5029247;28;20777;-58
2023/05/17 06:39:02;;;;;;;1.90;1.80;;;18.10;58.30;18.70;101731.00;;;;5043914;28;20186;-59
2023/05/17 06:41:28;;;;;;;3.40;2.00;;;18.00;58.20;18.70;101722.00;;;;5035519;28;20199;-59
2023/05/17 06:43:53;;;;;;;2.43;1.90;;;18.10;58.30;18.70;101729.00;;;;5029671;28;20217;-58
2023/05/17 06:46:19;;;;;;;2.07;1.93;;;18.00;58.30;18.70;101722.00;;;;5029738;28;20181;-59
2023/05/17 06:48:45;;;;;;;2.20;2.00;;;18.10;58.30;18.70;101730.00;;;;5027190;28;20175;-58
2023/05/17 06:51:11;;;;;;;2.37;2.17;;;18.00;58.30;18.70;101725.00;;;;5028991;28;20206;-59
2023/05/17 06:53:36;;;;;;;2.83;1.90;;;18.10;58.50;18.60;101736.00;;;;5029044;28;20183;-59
2023/05/17 06:56:02;;;;;;;2.23;2.03;;;18.10;58.50;18.60;101731.00;;;;5029588;28;20189;-58
2023/05/17 06:58:28;;;;;;;3.07;2.10;;;18.10;58.50;18.60;101741.00;;;;5027259;28;20194;-58
2023/05/17 07:00:54;;;;;;;2.20;2.00;;;18.00;58.50;18.60;101734.00;;;;5029473;28;20206;-59
2023/05/17 07:03:19;;;;;;;2.33;2.13;;;18.00;58.80;18.60;101738.00;;;;5027479;28;20206;-59
2023/05/17 07:05:45;;;;;;;2.57;2.20;;;18.00;58.90;18.60;101745.00;;;;5029219;28;20171;-60
2023/05/17 07:08:11;;;;;;;4.17;2.20;;;18.00;58.90;18.60;101738.00;;;;5026861;28;20171;-59
2023/05/17 07:10:37;;;;;;;3.87;2.30;;;18.00;59.20;18.60;101756.00;;;;5028701;28;20195;-59
2023/05/17 07:13:02;;;;;;;2.80;2.03;;;18.10;59.50;18.60;101739.00;;;;5033924;28;20230;-58
2023/05/17 07:15:28;;;;;;;2.50;2.13;;;18.00;59.40;18.60;101752.00;;;;5032341;28;20191;-58
2023/05/17 07:17:54;;;;;;;2.30;1.97;;;18.00;59.30;18.60;101757.00;;;;5026832;28;20182;-59
2023/05/17 07:20:20;;;;;;;3.33;2.23;;;18.00;59.30;18.60;101756.00;;;;5027162;28;20193;-58
2023/05/17 07:22:47;;;;;;;2.70;2.30;;;18.00;59.40;18.60;101760.00;;;;5010522;28;20750;-58
2023/05/17 07:25:13;;;;;;;4.87;2.20;;;18.00;59.40;18.60;101763.00;;;;5028502;28;20235;-58
2023/05/17 07:27:39;;;;;;;4.03;2.10;;;18.00;59.30;18.60;101764.00;;;;5028080;28;20182;-58
2023/05/17 07:30:08;;;;;;;2.27;2.07;;;18.00;59.30;18.60;101770.00;;;;5027549;28;20187;-58
2023/05/17 07:32:33;;;;;;;2.20;2.00;;;18.00;59.40;18.60;101777.00;;;;5028991;28;20277;-59
2023/05/17 07:35:01;;;;;;;2.87;2.03;;;18.00;59.40;18.60;101774.00;;;;5030384;28;20186;-59
2023/05/17 07:37:26;;;;;;;3.10;2.03;;;18.00;59.40;18.60;101783.00;;;;5032672;28;20791;-58
2023/05/17 07:39:52;;;;;;;5.47;2.30;;;18.00;59.40;18.50;101783.00;;;;5032906;28;20250;-58
2023/05/17 07:42:18;;;;;;;6.70;2.40;;;17.90;59.20;18.50;101788.00;;;;5032746;28;20198;-58
2023/05/17 07:44:43;;;;;;;6.33;2.23;;;17.90;59.20;18.50;101773.00;;;;5033271;28;20418;-57
2023/05/17 07:47:09;;;;;;;2.93;2.07;;;17.90;59.30;18.50;101777.00;;;;5030234;28;20182;-58
2023/05/17 07:49:35;;;;;;;5.57;2.17;;;18.00;59.40;18.50;101781.00;;;;5032224;28;20183;-57
2023/05/17 07:52:01;;;;;;;3.67;2.30;;;18.00;59.30;18.50;101775.00;;;;5031897;28;20203;-58
2023/05/17 07:54:27;;;;;;;3.93;2.10;;;18.00;59.30;18.50;101784.00;;;;5031945;28;20183;-57
2023/05/17 07:56:54;;;;;;;5.37;2.07;;;17.90;59.20;18.50;101783.00;;;;5012909;28;20198;-58
2023/05/17 07:59:20;;;;;;;5.87;2.17;;;18.00;59.50;18.50;101780.00;;;;5031036;28;20225;-58
2023/05/17 08:01:46;;;;;;;6.63;2.47;;;17.90;59.40;18.50;101793.00;;;;5032745;28;20248;-58
2023/05/17 08:04:13;;;;;;;5.30;2.43;;;17.90;59.40;18.50;101784.00;;;;5032520;28;20742;-59
2023/05/17 08:06:40;;;;;;;4.93;2.40;;;17.90;59.50;18.50;101793.00;;;;5032728;28;20609;-58
2023/05/17 08:09:06;;;;;;;4.93;2.20;;;17.90;59.50;18.50;101782.00;;;;5032505;28;20179;-58
2023/05/17 08:11:33;;;;;;;3.20;2.00;;;17.90;60.20;18.50;101786.00;;;;5030846;28;20677;-59
2023/05/17 08:13:59;;;;;;;4.57;2.20;;;17.90;59.50;18.50;101787.00;;;;5031288;28;20177;-58
2023/05/17 08:16:25;;;;;;;2.83;2.07;;;17.90;59.50;18.50;101781.00;;;;5032519;28;20641;-58
2023/05/17 08:18:51;;;;;;;4.50;2.27;;;17.90;59.60;18.50;101798.00;;;;5029403;28;20242;-57
2023/05/17 08:21:16;;;;;;;6.33;2.10;;;17.90;59.60;18.50;101791.00;;;;5031278;28;20199;-58
2023/05/17 08:23:42;;;;;;;4.57;2.00;;;17.90;59.50;18.50;101808.00;;;;5030883;28;20213;-58
2023/05/17 08:26:08;;;;;;;4.10;2.33;;;17.90;59.60;18.50;101806.00;;;;5042523;28;20168;-58
2023/05/17 08:28:34;;;;;;;2.90;2.03;;;17.90;59.60;18.50;101805.00;;;;5043454;28;20186;-58
2023/05/17 08:31:00;;;;;;;2.63;1.80;;;17.90;59.60;18.50;101798.00;;;;5033076;28;20202;-59
2023/05/17 08:33:26;;;;;;;3.83;2.30;;;17.90;59.60;18.60;101806.00;;;;5032458;28;20315;-58
2023/05/17 08:35:54;;;;;;;5.57;2.03;;;17.90;59.60;18.60;101812.00;;;;5033859;28;20262;-59
2023/05/17 08:38:22;;;;;;;4.97;2.13;;;17.90;59.60;18.50;101811.00;;;;5032497;28;20206;-58
2023/05/17 08:40:53;;;;;;;3.03;2.10;;;17.90;59.60;18.60;101805.00;;;;5022618;28;20187;-58
2023/05/17 08:43:20;;;;;;;2.73;2.13;;;17.90;59.70;18.60;101800.00;;;;5046972;28;20210;-57
2023/05/17 08:45:46;;;;;;;2.53;1.93;;;17.90;59.70;18.60;101802.00;;;;5029768;28;20240;-57
2023/05/17 08:48:11;;;;;;;4.07;2.10;;;17.90;59.70;18.60;101808.00;;;;5030983;28;20646;-58
2023/05/17 08:50:37;;;;;;;3.57;2.10;;;17.90;59.90;18.60;101802.00;;;;5031768;28;20249;-59
2023/05/17 08:53:03;;;;;;;3.10;2.37;;;17.90;59.90;18.60;101802.00;;;;5031701;28;20228;-59
2023/05/17 08:55:30;;;;;;;3.30;1.90;;;17.90;59.90;18.60;101801.00;;;;5032476;28;20181;-59
2023/05/17 08:57:55;;;;;;;3.13;1.93;;;17.90;60.00;18.60;101802.00;;;;5030431;28;20168;-58
2023/05/17 09:00:21;;;;;;;3.03;2.30;;;17.90;60.00;18.60;101805.00;;;;5029687;28;20186;-57
2023/05/17 09:02:47;;;;;;;2.67;1.90;;;17.90;60.00;18.60;101810.00;;;;5030329;28;20203;-58
2023/05/17 09:05:13;;;;;;;2.73;1.90;;;17.90;60.00;18.60;101811.00;;;;5030407;28;20174;-58
2023/05/17 09:07:40;;;;;;;7.77;2.20;;;17.90;60.20;18.60;101811.00;;;;5013300;28;20645;-59
2023/05/17 09:10:06;;;;;;;3.20;2.03;;;17.90;60.90;18.60;101814.00;;;;5029420;28;20187;-60
2023/05/17 09:12:33;;;;;;;2.67;2.10;;;17.90;62.10;18.60;101801.00;;;;5031238;28;20230;-60
2023/05/17 09:15:14;;;;;;;5.53;2.40;;;17.90;61.40;18.60;101803.00;;;;5013086;28;20570;-60
2023/05/17 09:17:40;;;;;;;6.07;2.37;;;17.90;61.40;18.60;101819.00;;;;5029963;28;20171;-59
2023/05/17 09:20:07;;;;;;;4.50;2.20;;;17.90;61.40;18.60;101817.00;;;;5031342;28;20281;-58
2023/05/17 09:22:34;;;;;;;3.93;2.17;;;17.90;61.40;18.60;101818.00;;;;5027328;28;20186;-58
2023/05/17 09:25:03;;;;;;;4.03;2.20;;;17.90;61.20;18.60;101803.00;;;;5029216;28;20637;-59
2023/05/17 09:27:30;;;;;;;3.60;1.97;;;17.90;61.10;18.60;101820.00;;;;5028475;28;20271;-58
2023/05/17 09:29:56;;;;;;;2.73;1.90;;;17.90;61.00;18.60;101803.00;;;;5028800;28;20203;-58
2023/05/17 09:32:23;;;;;;;3.70;2.00;;;17.90;61.00;18.60;101808.00;;;;5030398;28;20232;-59
2023/05/17 09:34:50;;;;;;;5.17;2.10;;;17.90;60.90;18.60;101810.00;;;;5029801;28;20178;-58
2023/05/17 09:37:17;;;;;;;4.37;2.40;;;17.90;60.90;18.60;101803.00;;;;5026812;28;20244;-59
2023/05/17 09:39:44;;;;;;;3.27;2.03;;;17.90;60.70;18.60;101800.00;;;;5029108;28;20185;-59
2023/05/17 09:42:15;;;;;;;4.07;2.20;;;17.90;60.60;18.60;101802.00;;;;5029695;28;20243;-58
2023/05/17 09:45:00;;;;;;;3.47;2.20;;;17.90;60.50;18.60;101798.00;;;;5028811;28;20209;-58
2023/05/17 09:47:27;;;;;;;5.60;2.20;;;17.90;60.20;18.60;101798.00;;;;5000845;28;20179;-60
2023/05/17 09:49:55;;;;;;;5.40;2.20;;;17.90;60.30;18.60;101794.00;;;;5027243;28;20202;-58
2023/05/17 09:52:22;;;;;;;3.40;2.30;;;17.90;60.20;18.60;101788.00;;;;5028678;28;20202;-58
2023/05/17 09:54:53;;;;;;;3.40;2.10;;;17.90;60.20;18.50;101794.00;;;;5028798;28;20194;-59
2023/05/17 09:57:18;;;;;;;2.87;2.30;;;17.90;60.10;18.60;101767.00;;;;5029595;28;20368;-58
2023/05/17 09:59:45;;;;;;;2.80;2.10;;;17.90;60.10;18.60;101801.00;;;;5028319;28;20229;-58
2023/05/17 10:02:21;;;;;;;3.17;2.00;;;17.90;60.20;18.60;101776.00;;;;5030185;28;20197;-59
2023/05/17 10:04:49;;;;;;;4.10;2.40;;;17.90;60.00;18.60;101797.00;;;;5028880;28;20174;-58
2023/05/17 10:07:18;;;;;;;3.80;2.10;;;17.90;60.00;18.60;101795.00;;;;5028593;28;20214;-58
2023/05/17 10:09:48;;;;;;;4.17;2.40;;;17.90;60.00;18.70;101792.00;;;;5028299;28;20589;-58
2023/05/17 10:12:20;;;;;;;2.37;2.00;;;17.90;60.00;18.60;101789.00;;;;5028366;28;20336;-57
2023/05/17 10:14:46;;;;;;;4.20;2.20;;;17.90;60.00;18.60;101794.00;;;;5028398;28;20680;-61
2023/05/17 10:17:13;;;;;;;4.20;2.10;;;17.90;60.00;18.70;101801.00;;;;5028268;28;20178;-58
2023/05/17 10:19:38;;;;;;;3.10;2.10;;;17.90;60.00;18.70;101792.00;;;;5027986;28;20199;-59
2023/05/17 10:22:05;;;;;;;3.63;2.30;;;17.90;60.00;18.70;101808.00;;;;5030946;28;20676;-60
2023/05/17 10:24:30;;;;;;;2.87;2.00;;;17.90;60.10;18.70;101790.00;;;;5022749;28;20627;-58
2023/05/17 10:26:59;;;;;;;2.80;2.20;;;17.90;60.10;18.70;101794.00;;;;5027688;28;20174;-59
2023/05/17 10:29:25;;;;;;;3.83;2.20;;;17.90;60.20;18.70;101780.00;;;;5024105;28;20608;-59
2023/05/17 10:31:51;;;;;;;3.17;2.10;;;18.00;60.30;18.70;101791.00;;;;5052406;28;20207;-59
2023/05/17 10:34:20;;;;;;;4.27;2.20;;;18.00;60.30;18.70;101784.00;;;;5034997;28;20802;-58
2023/05/17 10:36:48;;;;;;;6.57;2.20;;;17.90;60.10;18.80;101763.00;;;;5030939;28;20252;-55
2023/05/17 10:39:14;;;;;;;6.70;2.30;;;18.00;60.50;18.80;101780.00;;;;5030225;28;20327;-56
2023/05/17 10:41:42;;;;;;;4.53;2.50;;;18.00;60.30;18.90;101773.00;;;;5029770;28;20194;-55
2023/05/17 10:44:08;;;;;;;4.43;2.30;;;18.00;60.60;18.90;101779.00;;;;5030969;28;20211;-55
2023/05/17 10:46:35;;;;;;;6.60;2.30;;;18.00;60.70;18.90;101784.00;;;;5046529;28;20178;-53